Time;durP1;ratioP1;P1;durP2;ratioP2;P2;SDS_P1;SDS_P2;PMS_P1;PMS_P2;Temp;Humidity;BMP_temperature;BMP_pressure;BME280_temperature;BME280_humidity;BME280_pressure;Samples;Min_cycle;Max_cycle;Signal;HPM_P1;HPM_P2
2023/10/07 00:00:27;;;;;;;3.07;1.43;;;;;;;6.69;83.84;98654.88;5018322;28;20057;-74
2023/10/07 00:02:55;;;;;;;2.00;1.23;;;;;;;6.53;83.94;98648.72;5019132;28;20053;-74
2023/10/07 00:05:29;;;;;;;1.83;1.52;;;;;;;6.55;83.83;98644.91;5034491;28;20586;-74
2023/10/07 00:08:02;;;;;;;1.67;1.50;;;;;;;6.72;84.26;98651.09;5017621;28;20080;-72
2023/10/07 00:10:30;;;;;;;1.07;1.03;;;;;;;6.61;84.28;98641.66;5034218;28;20040;-72
2023/10/07 00:12:57;;;;;;;1.90;1.33;;;;;;;6.59;84.25;98630.44;5001495;28;20040;-75
2023/10/07 00:15:28;;;;;;;3.70;1.40;;;;;;;6.54;84.27;98637.16;5033668;28;20047;-72
2023/10/07 00:17:57;;;;;;;;;;;;;;;6.73;84.31;98637.75;5067078;28;20051;-73
2023/10/07 00:20:24;;;;;;;2.03;1.13;;;;;;;6.47;84.49;98641.44;5049926;28;20262;-73
2023/10/07 00:23:00;;;;;;;2.70;1.13;;;;;;;6.44;84.68;98634.63;5033363;28;20045;-71
2023/10/07 00:25:30;;;;;;;1.67;1.20;;;;;;;6.41;84.90;98648.13;5034793;28;20430;-71
2023/10/07 00:27:57;;;;;;;7.97;1.57;;;;;;;6.46;85.03;98634.47;5017410;28;20041;-71
2023/10/07 00:30:27;;;;;;;3.83;1.43;;;;;;;6.39;84.98;98626.38;5000939;28;20354;-75
2023/10/07 00:32:55;;;;;;;4.70;1.40;;;;;;;6.43;85.27;98632.16;5017667;28;20094;-72
2023/10/07 00:35:27;;;;;;;1.90;1.30;;;;;;;6.57;85.75;98619.22;5017198;28;20053;-73
2023/10/07 00:37:53;;;;;;;1.63;1.27;;;;;;;6.32;85.40;98629.81;5000484;28;20084;-74
2023/10/07 00:42:56;;;;;;;6.43;1.40;;;;;;;6.29;85.37;98628.28;5034243;28;20103;-77
2023/10/07 00:45:24;;;;;;;2.50;1.40;;;;;;;6.27;85.49;98622.34;5017394;28;20426;-75
2023/10/07 00:47:52;;;;;;;2.23;1.60;;;;;;;6.33;85.73;98626.19;5033778;28;20539;-75
2023/10/07 00:50:25;;;;;;;1.70;1.40;;;;;;;6.42;85.76;98618.16;5017369;28;20056;-75
2023/10/07 00:55:35;;;;;;;2.87;1.50;;;;;;;6.32;85.67;98600.81;5033201;28;20411;-73
2023/10/07 00:58:20;;;;;;;1.70;1.50;;;;;;;6.19;85.80;98608.28;5038220;28;20044;-75
2023/10/07 01:00:47;;;;;;;4.90;1.50;;;;;;;6.21;85.71;98604.50;5039540;28;20068;-76
2023/10/07 01:05:54;;;;;;;;;;;;;;;6.33;85.53;98600.66;5013829;28;20080;-74
2023/10/07 01:08:30;;;;;;;2.13;1.30;;;;;;;6.00;85.90;98585.59;4996160;28;20036;-74
2023/10/07 01:13:57;;;;;;;4.57;1.60;;;;;;;5.94;85.84;98578.31;4934626;29;20055;-75
2023/10/07 01:16:47;;;;;;;4.30;1.20;;;;;;;5.98;86.00;98561.19;4920222;29;20052;-75
2023/10/07 01:19:19;;;;;;;4.30;1.30;;;;;;;5.99;86.61;98560.25;4905788;29;20069;-72
2023/10/07 01:22:09;;;;;;;3.93;1.40;;;;;;;6.06;86.97;98561.25;4950651;29;20171;-74
2023/10/07 01:27:05;;;;;;;2.93;1.50;;;;;;;5.81;86.88;98548.88;4935510;29;20025;-73
2023/10/07 01:29:32;;;;;;;4.83;1.30;;;;;;;5.75;86.94;98557.41;4939162;28;20159;-74
2023/10/07 01:32:12;;;;;;;1.90;1.40;;;;;;;5.73;87.04;98555.91;4948309;28;20049;-73
2023/10/07 01:34:38;;;;;;;4.00;1.37;;;;;;;5.73;87.52;98556.75;4982306;28;20050;-74
2023/10/07 01:37:11;;;;;;;4.00;1.50;;;;;;;5.74;87.60;98554.91;4997094;28;20054;-74
2023/10/07 01:39:40;;;;;;;3.10;1.30;;;;;;;5.70;87.63;98557.06;4999871;28;20224;-74
2023/10/07 01:42:22;;;;;;;2.43;1.63;;;;;;;5.84;88.02;98553.91;5033673;28;20057;-75
2023/10/07 01:44:55;;;;;;;1.55;1.45;;;;;;;5.64;87.75;98552.41;5002200;28;20043;-74
2023/10/07 01:47:24;;;;;;;3.00;1.90;;;;;;;5.70;87.88;98543.88;5016520;28;20046;-74
2023/10/07 01:49:53;;;;;;;4.23;1.40;;;;;;;5.66;88.03;98544.34;4984584;28;20095;-74
2023/10/07 01:52:26;;;;;;;7.10;1.60;;;;;;;5.68;88.28;98537.09;4984185;28;20037;-75
2023/10/07 01:54:54;;;;;;;2.30;1.40;;;;;;;5.67;88.16;98538.09;5032769;28;20510;-75
2023/10/07 01:57:20;;;;;;;2.17;1.30;;;;;;;5.54;87.97;98533.22;5016586;28;20092;-76
2023/10/07 01:59:46;;;;;;;6.70;1.50;;;;;;;5.53;88.06;98534.19;5015727;28;20041;-74
2023/10/07 02:02:14;;;;;;;1.93;1.50;;;;;;;5.51;87.87;98530.88;4999897;28;20468;-73
2023/10/07 02:04:40;;;;;;;2.20;1.53;;;;;;;5.51;87.83;98514.25;5016567;28;20060;-75
2023/10/07 02:07:08;;;;;;;1.60;1.40;;;;;;;5.54;87.88;98524.47;5000127;28;20049;-76
2023/10/07 02:09:40;;;;;;;2.23;1.50;;;;;;;5.45;87.90;98526.25;5000359;28;20432;-74
2023/10/07 02:12:09;;;;;;;3.57;1.60;;;;;;;5.37;87.91;98514.78;5001183;28;20045;-74
2023/10/07 02:14:37;;;;;;;3.40;2.03;;;;;;;5.39;88.09;98516.31;5000969;28;20041;-73
2023/10/07 02:17:03;;;;;;;3.13;1.50;;;;;;;5.39;88.39;98521.59;4999727;28;20139;-73
2023/10/07 02:19:31;;;;;;;4.07;1.60;;;;;;;5.44;88.44;98516.69;5015949;28;20156;-73
2023/10/07 02:22:28;;;;;;;4.33;1.70;;;;;;;5.37;88.05;98520.06;5005535;28;20061;-73
2023/10/07 02:25:04;;;;;;;2.57;1.57;;;;;;;5.37;88.00;98518.28;4999617;28;20041;-73
2023/10/07 02:27:41;;;;;;;3.25;2.03;;;;;;;5.35;87.84;98514.16;4987040;28;20047;-73
2023/10/07 02:30:16;;;;;;;2.33;1.80;;;;;;;5.35;88.01;98503.63;5000574;28;20440;-76
2023/10/07 02:32:42;;;;;;;3.40;1.67;;;;;;;5.30;87.89;98504.06;5017082;28;20053;-76
2023/10/07 02:35:09;;;;;;;4.13;1.57;;;;;;;5.28;87.69;98503.38;5016717;28;20045;-77
2023/10/07 02:37:38;;;;;;;2.53;1.70;;;;;;;5.26;87.65;98509.81;4985224;28;20048;-79
2023/10/07 02:40:22;;;;;;;4.30;1.90;;;;;;;5.28;87.67;98506.03;5000335;28;20052;-77
2023/10/07 02:42:51;;;;;;;5.43;2.10;;;;;;;5.13;87.79;98505.75;5017914;28;20395;-76
2023/10/07 02:47:50;;;;;;;4.27;2.13;;;;;;;5.23;88.31;98500.38;4999450;28;20042;-74
2023/10/07 02:50:17;;;;;;;2.43;1.57;;;;;;;5.05;88.41;98496.94;5015894;28;20048;-72
2023/10/07 02:52:46;;;;;;;5.13;2.10;;;;;;;5.00;88.49;98484.25;5015485;28;20476;-70
2023/10/07 02:57:43;;;;;;;2.43;1.70;;;;;;;5.02;88.60;98489.34;5031879;28;20371;-72
2023/10/07 03:00:18;;;;;;;2.93;1.63;;;;;;;4.98;88.78;98486.19;5031373;28;20056;-71
2023/10/07 03:02:51;;;;;;;1.97;1.70;;;;;;;4.93;89.01;98485.00;5014976;28;20140;-73
2023/10/07 03:05:27;;;;;;;3.47;1.80;;;;;;;4.88;88.92;98495.97;5032223;28;20052;-71
2023/10/07 03:08:02;;;;;;;2.53;1.67;;;;;;;4.88;89.31;98482.00;5015571;28;20399;-73
2023/10/07 03:13:18;;;;;;;5.03;1.63;;;;;;;4.88;88.77;98467.03;4998934;28;20049;-73
2023/10/07 03:15:46;;;;;;;3.00;1.60;;;;;;;4.90;88.73;98459.00;5034797;28;20386;-73
2023/10/07 03:18:21;;;;;;;6.67;1.50;;;;;;;4.95;88.96;98447.03;5052245;28;20037;-73
2023/10/07 03:21:10;;;;;;;3.33;1.43;;;;;;;5.01;88.56;98429.84;5036399;28;20049;-72
2023/10/07 03:23:36;;;;;;;1.93;1.40;;;;;;;4.88;88.26;98424.94;5037635;28;20056;-73
2023/10/07 03:28:35;;;;;;;1.63;1.20;;;;;;;5.06;88.91;98412.59;5051369;28;20044;-72
2023/10/07 03:31:18;;;;;;;2.60;1.13;;;;;;;5.08;88.63;98413.28;5052108;28;20044;-72
2023/10/07 03:33:53;;;;;;;1.63;1.40;;;;;;;5.03;88.27;98409.44;5020114;28;20063;-72
2023/10/07 03:39:16;;;;;;;7.10;1.60;;;;;;;5.15;87.72;98381.91;5018534;28;20391;-72
2023/10/07 03:41:47;;;;;;;2.30;1.50;;;;;;;5.29;87.31;98378.69;5054738;28;20053;-75
2023/10/07 03:44:17;;;;;;;4.60;1.63;;;;;;;5.34;87.33;98380.84;5018688;28;20058;-74
2023/10/07 03:46:46;;;;;;;4.70;1.33;;;;;;;5.17;87.06;98379.94;5035244;28;20148;-71
2023/10/07 03:49:12;;;;;;;4.13;1.63;;;;;;;4.90;87.34;98377.44;5018308;28;20098;-72
2023/10/07 03:51:39;;;;;;;5.33;1.60;;;;;;;4.87;87.96;98381.19;5018000;28;20044;-71
2023/10/07 03:54:11;;;;;;;2.07;1.80;;;;;;;4.84;88.37;98359.66;5017803;28;20052;-70
2023/10/07 03:56:38;;;;;;;2.87;1.70;;;;;;;4.70;88.39;98353.16;5018006;28;20167;-74
2023/10/07 03:59:07;;;;;;;1.90;1.63;;;;;;;4.70;88.35;98345.25;4996112;28;20044;-70
2023/10/07 04:01:33;;;;;;;2.47;1.70;;;;;;;4.68;88.36;98335.84;5018036;28;20041;-73
2023/10/07 04:03:59;;;;;;;6.40;1.90;;;;;;;4.71;89.15;98339.00;5018386;28;20052;-72
2023/10/07 04:06:34;;;;;;;4.90;2.60;;;;;;;4.65;89.18;98333.53;5002449;28;20037;-71
2023/10/07 04:09:07;;;;;;;4.00;1.60;;;;;;;4.54;89.60;98325.88;5020079;28;20044;-72
2023/10/07 04:11:38;;;;;;;3.83;2.00;;;;;;;4.73;89.96;98329.16;4997716;28;20045;-73
2023/10/07 04:14:27;;;;;;;2.00;1.63;;;;;;;4.58;89.97;98328.03;4964880;28;20459;-71
2023/10/07 04:17:03;;;;;;;3.53;1.70;;;;;;;4.48;90.02;98326.50;4967677;28;20057;-69
2023/10/07 04:21:55;;;;;;;5.57;2.07;;;;;;;4.47;90.51;98319.59;4980661;28;20199;-69
2023/10/07 04:24:26;;;;;;;7.07;2.50;;;;;;;4.41;90.80;98312.31;4997396;28;20049;-69
2023/10/07 04:26:54;;;;;;;7.37;2.53;;;;;;;4.44;90.85;98304.97;4981371;28;20107;-66
2023/10/07 04:29:21;;;;;;;8.17;3.70;;;;;;;4.46;91.24;98299.56;4964769;28;20057;-70
2023/10/07 04:31:53;;;;;;;13.67;3.90;;;;;;;4.65;91.31;98288.84;4996911;28;20136;-72
2023/10/07 04:34:24;;;;;;;16.17;6.13;;;;;;;4.65;91.02;98279.16;4980786;28;20083;-71
2023/10/07 04:39:39;;;;;;;12.77;3.67;;;;;;;4.57;91.13;98268.56;4981842;28;20733;-69
2023/10/07 04:42:06;;;;;;;7.57;2.70;;;;;;;4.60;91.02;98270.06;5008512;28;20060;-70
2023/10/07 04:50:08;;;;;;;9.07;2.37;;;;;;;4.63;91.38;98246.09;5032733;28;20359;-71
2023/10/07 04:52:40;;;;;;;7.17;2.90;;;;;;;4.67;91.35;98244.81;5047860;28;20135;-70
2023/10/07 04:55:11;;;;;;;4.83;2.37;;;;;;;4.71;91.28;98243.50;5029003;28;20426;-70
2023/10/07 05:03:08;;;;;;;4.38;2.33;;;;;;;4.82;90.95;98217.78;5052366;28;20085;-71
2023/10/07 05:05:34;;;;;;;4.90;2.27;;;;;;;4.76;90.81;98214.94;5054308;28;20102;-72
2023/10/07 05:08:22;;;;;;;7.07;2.50;;;;;;;4.87;91.03;98209.44;5055090;28;20048;-74
2023/10/07 05:11:04;;;;;;;3.53;1.93;;;;;;;4.87;90.59;98212.84;5056259;28;20037;-73
2023/10/07 05:13:33;;;;;;;4.40;2.40;;;;;;;4.92;90.69;98189.53;5055241;28;20045;-72
2023/10/07 05:15:59;;;;;;;6.77;2.50;;;;;;;4.93;90.57;98179.84;5039251;28;20052;-73
2023/10/07 05:18:26;;;;;;;10.03;2.93;;;;;;;4.97;90.00;98187.28;5053876;28;20146;-69
2023/10/07 05:20:54;;;;;;;8.73;2.70;;;;;;;4.98;90.40;98174.97;5022838;28;20160;-74
2023/10/07 05:23:22;;;;;;;8.70;3.30;;;;;;;5.01;90.15;98180.69;5059428;28;20052;-71
2023/10/07 05:25:48;;;;;;;11.07;3.70;;;;;;;5.09;89.35;98158.84;5029293;28;20068;-72
2023/10/07 05:28:20;;;;;;;6.80;3.50;;;;;;;5.23;89.51;98152.97;5075622;28;20043;-73
2023/10/07 05:30:50;;;;;;;8.13;4.38;;;;;;;5.31;89.45;98146.91;5039326;28;20041;-75
2023/10/07 05:33:17;;;;;;;11.00;4.55;;;;;;;5.30;88.92;98137.38;5087202;28;20122;-72
2023/10/07 05:35:44;;;;;;;8.70;4.37;;;;;;;5.15;88.76;98143.25;5054244;28;20055;-68
2023/10/07 05:38:10;;;;;;;11.73;5.07;;;;;;;5.20;88.83;98125.19;5020812;28;20344;-73
2023/10/07 05:40:40;;;;;;;13.83;6.13;;;;;;;5.37;88.50;98119.94;5037199;28;20486;-73
2023/10/07 05:43:08;;;;;;;14.50;5.68;;;;;;;5.34;87.99;98112.38;5053695;28;20045;-75
2023/10/07 05:45:34;;;;;;;19.37;6.63;;;;;;;5.37;88.09;98107.63;5003648;28;20041;-73
2023/10/07 05:48:04;;;;;;;13.80;5.60;;;;;;;5.48;88.02;98093.31;5018376;28;20037;-72
2023/10/07 05:50:32;;;;;;;9.87;5.10;;;;;;;5.38;87.76;98103.19;5051795;28;20045;-72
2023/10/07 05:53:05;;;;;;;5.23;3.10;;;;;;;5.50;87.47;98076.38;5052238;28;20065;-71
2023/10/07 05:55:33;;;;;;;6.00;3.20;;;;;;;5.37;87.51;98081.28;5052737;28;20059;-72
2023/10/07 05:58:05;;;;;;;7.93;2.63;;;;;;;5.65;87.14;98060.72;5036714;28;20047;-73
2023/10/07 06:00:31;;;;;;;7.10;2.80;;;;;;;5.61;86.41;98052.34;5036650;28;20463;-73
2023/10/07 06:03:06;;;;;;;6.53;2.90;;;;;;;5.83;86.72;98038.50;5036501;28;20052;-70
2023/10/07 06:05:37;;;;;;;2.77;1.90;;;;;;;5.73;86.05;98035.22;5052194;28;20037;-73
2023/10/07 06:08:05;;;;;;;3.70;2.00;;;;;;;5.91;85.86;98029.78;5020282;28;20045;-71
2023/10/07 06:10:34;;;;;;;5.70;2.00;;;;;;;6.00;85.79;98023.50;5019594;28;20060;-71
2023/10/07 06:13:08;;;;;;;5.23;2.10;;;;;;;5.84;84.97;98023.53;5052988;28;20189;-74
2023/10/07 06:15:38;;;;;;;1.80;1.57;;;;;;;5.96;84.88;98012.50;5037271;28;20037;-77
2023/10/07 06:18:07;;;;;;;4.00;2.20;;;;;;;6.09;84.86;98002.22;5053865;28;20041;-75
2023/10/07 06:20:46;;;;;;;5.57;1.67;;;;;;;5.86;83.67;98018.94;5019621;28;20060;-76
2023/10/07 06:23:14;;;;;;;2.17;1.50;;;;;;;6.12;83.65;97975.53;5049840;28;20045;-74
2023/10/07 06:25:48;;;;;;;5.70;1.70;;;;;;;6.26;83.15;97963.44;5035890;28;20037;-74
2023/10/07 06:31:01;;;;;;;11.10;2.00;;;;;;;6.34;81.92;97952.88;5052770;28;20037;-72
2023/10/07 06:33:31;;;;;;;9.80;1.73;;;;;;;6.34;81.64;97944.97;5034373;28;20056;-73
2023/10/07 06:35:59;;;;;;;3.97;1.75;;;;;;;6.42;81.01;97932.56;5051613;28;20051;-74
2023/10/07 06:38:26;;;;;;;8.27;2.30;;;;;;;6.55;80.53;97942.56;5002009;28;20063;-72
2023/10/07 06:40:53;;;;;;;6.32;1.90;;;;;;;6.53;81.40;97916.31;5052694;28;20478;-74
2023/10/07 06:43:21;;;;;;;6.75;2.33;;;;;;;6.55;80.58;97919.63;5015047;28;20132;-73
2023/10/07 06:45:48;;;;;;;7.38;2.17;;;;;;;6.51;81.10;97910.44;4998467;28;20053;-73
2023/10/07 06:48:15;;;;;;;5.70;1.90;;;;;;;6.36;83.33;97895.53;4998382;28;20148;-73
2023/10/07 06:50:41;;;;;;;4.55;1.75;;;;;;;6.39;83.59;97880.19;4966588;28;20052;-73
2023/10/07 06:53:11;;;;;;;5.13;1.63;;;;;;;6.58;83.82;97890.25;4998368;28;20053;-73
2023/10/07 06:55:43;;;;;;;14.07;2.10;;;;;;;6.39;83.91;97856.47;4998887;28;20130;-73
2023/10/07 06:58:09;;;;;;;2.08;1.70;;;;;;;6.53;85.19;97839.84;4999308;28;20349;-74
2023/10/07 07:00:48;;;;;;;4.68;1.98;;;;;;;6.47;85.93;97835.28;4998285;28;20060;-74
2023/10/07 07:03:18;;;;;;;7.00;1.80;;;;;;;6.53;87.25;97829.31;4999629;28;20180;-74
2023/10/07 07:05:48;;;;;;;6.65;2.08;;;;;;;6.40;87.75;97831.72;4998737;28;20049;-74
2023/10/07 07:08:14;;;;;;;3.40;1.87;;;;;;;6.35;88.84;97806.91;5031053;28;20144;-73
2023/10/07 07:10:40;;;;;;;4.40;2.23;;;;;;;6.31;90.13;97809.06;5014461;28;20112;-74
2023/10/07 07:13:15;;;;;;;4.82;2.03;;;;;;;6.09;91.38;97794.03;5014873;28;20033;-74
2023/10/07 07:15:46;;;;;;;11.27;2.20;;;;;;;6.22;92.98;97783.75;5019538;28;20041;-75
2023/10/07 07:21:14;;;;;;;2.07;1.73;;;;;;;6.44;95.04;97753.91;5018413;28;20049;-75
2023/10/07 07:23:39;;;;;;;7.83;2.07;;;;;;;6.12;95.00;97748.91;5050468;28;20095;-74
2023/10/07 07:26:10;;;;;;;3.10;1.90;;;;;;;6.31;97.40;97760.78;5035051;28;20348;-74
2023/10/07 07:28:43;;;;;;;4.53;2.30;;;;;;;6.06;98.87;97727.69;5051508;28;20056;-72
2023/10/07 07:31:11;;;;;;;6.93;2.47;;;;;;;6.18;100.00;97724.47;5017302;28;20045;-72
2023/10/07 07:33:39;;;;;;;5.50;2.40;;;;;;;6.19;100.00;97715.59;5017045;28;20055;-71
2023/10/07 07:38:54;;;;;;;4.63;2.70;;;;;;;6.45;100.00;97684.38;5003691;28;20068;-71
2023/10/07 07:41:55;;;;;;;10.60;3.50;;;;;;;6.29;100.00;97681.88;5017209;28;20134;-74
2023/10/07 07:44:34;;;;;;;5.07;3.17;;;;;;;6.53;100.00;97671.09;5033663;28;20149;-74
2023/10/07 07:47:03;;;;;;;11.27;3.20;;;;;;;6.55;100.00;97673.56;5033198;28;20053;-73
2023/10/07 07:49:32;;;;;;;5.10;3.17;;;;;;;6.41;100.00;97664.63;5033875;28;20132;-71
2023/10/07 07:51:59;;;;;;;11.07;3.30;;;;;;;6.21;100.00;97636.34;5033546;28;20079;-72
2023/10/07 07:54:53;;;;;;;7.38;3.35;;;;;;;6.50;100.00;97653.00;5001394;28;20457;-72
2023/10/07 07:57:22;;;;;;;8.63;3.83;;;;;;;6.22;100.00;97640.59;5019091;28;20065;-72
2023/10/07 07:59:52;;;;;;;15.70;3.70;;;;;;;6.35;100.00;97620.53;5018926;28;20597;-72
2023/10/07 08:02:24;;;;;;;11.83;4.93;;;;;;;6.32;100.00;97635.91;5044794;28;20053;-70
2023/10/07 08:05:02;;;;;;;11.30;4.33;;;;;;;6.15;100.00;97584.34;5019653;28;20284;-72
2023/10/07 08:07:30;;;;;;;11.77;4.93;;;;;;;6.26;100.00;97616.34;5049715;28;20051;-69
2023/10/07 08:10:03;;;;;;;10.90;4.77;;;;;;;6.45;100.00;97591.28;5043092;28;20037;-70
2023/10/07 08:12:34;;;;;;;9.77;4.70;;;;;;;6.49;100.00;97548.53;5034371;28;20103;-69
2023/10/07 08:17:40;;;;;;;9.63;4.50;;;;;;;6.64;100.00;97514.25;5057776;28;20041;-70
2023/10/07 08:20:12;;;;;;;9.93;3.45;;;;;;;6.72;100.00;97507.03;5009947;28;20511;-70
2023/10/07 08:22:57;;;;;;;8.55;3.70;;;;;;;6.79;100.00;97494.75;5042423;28;20147;-70
2023/10/07 08:25:37;;;;;;;6.47;3.23;;;;;;;6.75;100.00;97485.56;5030612;28;20132;-69
2023/10/07 08:31:06;;;;;;;9.80;3.70;;;;;;;6.67;100.00;97442.69;4983858;28;20380;-72
2023/10/07 08:33:33;;;;;;;11.00;4.82;;;;;;;6.88;100.00;97432.13;4991595;28;20079;-72
2023/10/07 08:35:58;;;;;;;10.13;3.83;;;;;;;6.63;100.00;97429.03;4993313;28;20377;-72
2023/10/07 08:38:37;;;;;;;10.07;3.65;;;;;;;6.85;100.00;97424.59;5009507;28;20049;-69
2023/10/07 08:41:05;;;;;;;7.85;4.03;;;;;;;7.02;100.00;97404.03;4995871;28;20064;-70
2023/10/07 08:43:38;;;;;;;6.53;2.67;;;;;;;6.97;100.00;97436.28;5043545;28;20051;-70
2023/10/07 08:46:08;;;;;;;7.63;2.78;;;;;;;7.02;100.00;97383.75;5044979;28;20075;-71
2023/10/07 08:48:38;;;;;;;8.02;3.22;;;;;;;7.03;100.00;97374.03;5020118;28;20055;-70
2023/10/07 08:51:14;;;;;;;9.88;3.03;;;;;;;7.27;100.00;97374.41;5069493;28;20045;-70
2023/10/07 08:53:41;;;;;;;8.48;3.60;;;;;;;7.12;100.00;97373.66;5053063;28;20052;-70
2023/10/07 08:56:11;;;;;;;6.75;3.45;;;;;;;7.17;100.00;97363.38;5035656;28;20048;-69
2023/10/07 08:58:41;;;;;;;5.32;3.70;;;;;;;7.14;100.00;97347.91;5034199;28;20479;-69
2023/10/07 09:01:16;;;;;;;5.45;4.00;;;;;;;7.16;100.00;97351.19;5034589;28;20403;-70
2023/10/07 09:03:51;;;;;;;7.68;4.07;;;;;;;7.34;100.00;97337.47;5050122;28;20053;-69
2023/10/07 09:06:19;;;;;;;5.22;3.13;;;;;;;7.16;100.00;97335.34;5050304;28;20063;-69
2023/10/07 09:08:45;;;;;;;7.05;3.78;;;;;;;7.39;100.00;97306.88;5033813;28;20072;-68
2023/10/07 09:11:18;;;;;;;6.25;3.17;;;;;;;7.39;100.00;97296.31;5050060;28;20072;-69
2023/10/07 09:13:47;;;;;;;7.43;3.60;;;;;;;7.50;100.00;97297.56;5050563;28;20064;-69
2023/10/07 09:16:14;;;;;;;5.40;3.33;;;;;;;7.48;100.00;97278.47;5034076;28;20052;-69
2023/10/07 09:18:41;;;;;;;7.00;3.28;;;;;;;7.47;100.00;97279.47;5050337;28;20066;-70
2023/10/07 09:21:09;;;;;;;8.25;3.17;;;;;;;7.50;100.00;97284.38;5033465;28;20064;-70
2023/10/07 09:23:43;;;;;;;7.00;3.22;;;;;;;7.61;100.00;97267.97;5031196;28;20052;-70
2023/10/07 09:29:15;;;;;;;7.32;3.95;;;;;;;7.57;100.00;97253.50;5003087;28;20111;-71
2023/10/07 09:31:56;;;;;;;11.82;2.88;;;;;;;7.70;100.00;97243.84;5008771;28;20133;-70
2023/10/07 09:34:31;;;;;;;7.85;3.42;;;;;;;7.61;100.00;97229.16;5009160;28;20041;-70
2023/10/07 09:36:58;;;;;;;6.97;3.40;;;;;;;7.61;100.00;97204.59;4993242;28;20077;-70
2023/10/07 09:42:37;;;;;;;5.35;3.45;;;;;;;7.61;100.00;97207.22;5043713;28;20132;-71
2023/10/07 09:47:37;;;;;;;6.95;4.07;;;;;;;7.91;100.00;97179.44;5021215;28;20455;-73
2023/10/07 09:50:25;;;;;;;5.35;3.42;;;;;;;7.98;100.00;97185.56;5036930;28;20049;-72
2023/10/07 09:53:30;;;;;;;4.25;3.05;;;;;;;8.09;100.00;97155.88;5087241;28;20127;-70
2023/10/07 09:56:04;;;;;;;6.35;3.13;;;;;;;8.05;100.00;97149.38;5003141;28;20052;-70
2023/10/07 09:58:36;;;;;;;5.80;3.25;;;;;;;8.07;100.00;97137.59;5053714;28;20098;-70
2023/10/07 10:01:37;;;;;;;7.47;3.80;;;;;;;8.24;100.00;97138.03;5054216;28;20075;-70
2023/10/07 10:04:43;;;;;;;4.90;3.30;;;;;;;8.16;100.00;97138.22;5021797;28;20082;-70
2023/10/07 10:07:28;;;;;;;5.90;3.38;;;;;;;8.09;100.00;97105.66;5036749;28;20083;-70
2023/10/07 10:10:13;;;;;;;5.35;3.38;;;;;;;8.27;100.00;97101.41;5053958;28;20080;-70
2023/10/07 10:17:53;;;;;;;4.70;3.40;;;;;;;8.45;100.00;97096.31;5052383;28;20051;-70
2023/10/07 10:20:27;;;;;;;5.30;3.35;;;;;;;8.42;100.00;97072.13;5069459;28;20041;-70
2023/10/07 10:22:59;;;;;;;8.13;3.72;;;;;;;8.59;100.00;97063.50;5084863;28;20045;-70
2023/10/07 10:25:37;;;;;;;7.78;4.13;;;;;;;8.48;100.00;97095.09;5052129;28;20053;-70
2023/10/07 10:28:06;;;;;;;6.32;3.10;;;;;;;8.45;100.00;97069.06;5067559;28;20166;-70
2023/10/07 10:30:32;;;;;;;5.55;3.45;;;;;;;8.49;100.00;97062.31;5052986;28;20047;-70
2023/10/07 10:33:00;;;;;;;7.22;3.97;;;;;;;8.77;100.00;97028.44;5053554;28;20040;-70
2023/10/07 10:35:27;;;;;;;6.93;3.22;;;;;;;8.70;100.00;97026.88;5036087;28;20150;-70
2023/10/07 10:37:55;;;;;;;4.55;3.40;;;;;;;8.71;100.00;97049.63;5036107;28;20041;-70
2023/10/07 10:40:21;;;;;;;4.43;3.35;;;;;;;8.66;100.00;97052.91;5035699;28;20498;-70
2023/10/07 10:42:48;;;;;;;4.95;3.00;;;;;;;8.75;100.00;96988.16;5036092;28;20041;-70
2023/10/07 10:45:19;;;;;;;3.95;2.75;;;;;;;8.94;100.00;96971.38;5035409;28;20095;-69
2023/10/07 10:47:50;;;;;;;3.85;2.92;;;;;;;8.96;100.00;96958.75;5052468;28;20434;-71
2023/10/07 10:50:19;;;;;;;4.03;3.17;;;;;;;8.88;100.00;96966.13;5052119;28;20132;-70
2023/10/07 10:52:54;;;;;;;5.82;2.70;;;;;;;8.94;100.00;96970.56;5051927;28;20040;-71
2023/10/07 10:55:22;;;;;;;5.40;3.10;;;;;;;8.97;100.00;96925.97;5002960;28;20064;-70
2023/10/07 10:57:47;;;;;;;5.72;3.03;;;;;;;8.98;100.00;96945.31;5035981;28;20083;-70
2023/10/07 11:00:20;;;;;;;5.50;3.00;;;;;;;9.01;100.00;96953.59;5053080;28;20052;-71
2023/10/07 11:02:48;;;;;;;3.22;2.50;;;;;;;9.05;100.00;96949.53;5052165;28;20056;-70
2023/10/07 11:05:15;;;;;;;4.35;2.90;;;;;;;9.06;100.00;96931.78;5019061;28;20124;-71
2023/10/07 11:07:50;;;;;;;4.80;3.28;;;;;;;9.11;100.00;96926.66;5035298;28;20052;-71
2023/10/07 11:10:23;;;;;;;4.93;3.22;;;;;;;9.16;100.00;96935.59;5051955;28;20094;-71
2023/10/07 11:12:56;;;;;;;5.63;3.38;;;;;;;9.19;100.00;96944.94;5051759;28;20043;-69
2023/10/07 11:15:26;;;;;;;5.72;3.28;;;;;;;9.19;100.00;96916.66;5067419;28;20074;-70
2023/10/07 11:17:58;;;;;;;4.70;3.13;;;;;;;9.27;100.00;96918.22;5051962;28;20049;-69
2023/10/07 11:20:34;;;;;;;6.70;4.30;;;;;;;9.58;100.00;96881.88;5053548;28;20037;-69
2023/10/07 11:23:00;;;;;;;17.55;4.40;;;;;;;9.28;100.00;96883.56;5035803;28;20036;-69
2023/10/07 11:25:26;;;;;;;10.63;4.22;;;;;;;9.46;100.00;96914.56;5034171;28;20371;-68
2023/10/07 11:27:58;;;;;;;6.40;4.20;;;;;;;9.66;100.00;96884.25;5034813;28;20139;-68
2023/10/07 11:30:24;;;;;;;7.57;4.80;;;;;;;9.55;100.00;96863.75;5019793;28;20033;-71
2023/10/07 11:32:50;;;;;;;10.18;5.60;;;;;;;9.62;100.00;96853.91;5034625;28;20040;-70
2023/10/07 11:35:29;;;;;;;5.72;3.80;;;;;;;9.70;100.00;96856.25;4990932;28;20064;-70
2023/10/07 11:37:58;;;;;;;6.78;4.63;;;;;;;9.58;100.00;96844.78;4995731;28;20041;-71
2023/10/07 11:40:24;;;;;;;9.57;5.50;;;;;;;9.58;100.00;96850.06;4971842;28;20169;-67
2023/10/07 11:42:51;;;;;;;8.05;5.35;;;;;;;9.74;100.00;96830.13;4977974;28;20095;-74
2023/10/07 11:45:17;;;;;;;8.18;5.05;;;;;;;9.48;100.00;96830.41;4954385;28;20440;-69
2023/10/07 11:47:44;;;;;;;9.25;4.85;;;;;;;9.67;100.00;96792.31;4971224;28;20057;-71
2023/10/07 11:50:10;;;;;;;9.77;5.20;;;;;;;9.62;100.00;96786.88;4985495;28;20050;-71
2023/10/07 11:52:40;;;;;;;8.93;5.40;;;;;;;9.70;100.00;96774.13;5019344;28;20045;-70
2023/10/07 11:55:07;;;;;;;7.05;5.03;;;;;;;9.76;100.00;96761.84;4971081;28;20132;-69
2023/10/07 11:57:36;;;;;;;7.25;5.03;;;;;;;9.82;100.00;96764.41;5010650;28;20049;-70
2023/10/07 12:00:09;;;;;;;11.05;5.00;;;;;;;9.81;100.00;96769.94;5004024;28;20046;-68
2023/10/07 12:02:39;;;;;;;7.18;4.97;;;;;;;9.92;100.00;96745.31;5011491;28;20055;-70
2023/10/07 12:05:10;;;;;;;9.18;5.10;;;;;;;9.88;100.00;96744.97;4983497;28;20120;-70
2023/10/07 12:07:47;;;;;;;9.05;5.43;;;;;;;10.15;100.00;96740.94;4989216;28;20045;-73
2023/10/07 12:10:21;;;;;;;9.68;5.03;;;;;;;9.89;100.00;96720.06;4960713;28;20133;-71
2023/10/07 12:12:52;;;;;;;7.60;5.32;;;;;;;10.04;100.00;96717.03;4942803;28;20049;-71
2023/10/07 12:15:18;;;;;;;7.45;5.35;;;;;;;10.07;100.00;96728.00;4976162;28;20499;-72
2023/10/07 12:17:45;;;;;;;10.65;7.18;;;;;;;10.24;100.00;96739.59;4960280;28;20073;-72
2023/10/07 12:20:22;;;;;;;8.65;6.20;;;;;;;10.28;100.00;96721.38;4944370;28;20108;-73
2023/10/07 12:22:49;;;;;;;12.60;6.50;;;;;;;10.19;100.00;96686.41;4977663;28;20077;-72
2023/10/07 12:25:16;;;;;;;9.95;6.63;;;;;;;10.36;100.00;96705.16;4940427;28;20128;-71
2023/10/07 12:27:43;;;;;;;10.93;5.60;;;;;;;10.37;100.00;96712.06;4988341;28;20046;-71
2023/10/07 12:30:11;;;;;;;9.85;6.03;;;;;;;10.31;100.00;96662.59;4966383;28;20125;-72
2023/10/07 12:32:41;;;;;;;15.13;6.28;;;;;;;10.08;100.00;96673.97;4943152;28;20439;-70
2023/10/07 12:35:09;;;;;;;;;;;;;;;10.38;100.00;96673.09;5002474;28;20128;-70
2023/10/07 12:37:38;;;;;;;16.42;6.93;;;;;;;10.16;100.00;96655.03;4958347;28;20643;-73
2023/10/07 12:40:10;;;;;;;9.75;6.28;;;;;;;10.24;100.00;96646.75;4977592;28;20514;-73
2023/10/07 12:42:41;;;;;;;11.43;6.45;;;;;;;10.12;100.00;96648.59;4991716;28;20045;-70
2023/10/07 12:45:11;;;;;;;19.98;8.60;;;;;;;9.98;100.00;96633.06;5023880;28;20164;-71
2023/10/07 12:47:39;;;;;;;21.65;7.57;;;;;;;9.97;100.00;96619.03;5003633;28;20530;-70
2023/10/07 12:50:27;;;;;;;24.63;7.47;;;;;;;9.88;100.00;96620.41;4992009;28;20627;-72
2023/10/07 12:52:55;;;;;;;14.05;6.95;;;;;;;9.94;100.00;96581.56;4963566;28;20079;-71
2023/10/07 12:55:21;;;;;;;11.18;7.00;;;;;;;9.90;100.00;96593.66;5023362;28;20034;-72
2023/10/07 12:57:49;;;;;;;16.25;6.93;;;;;;;9.99;100.00;96563.91;5018497;28;20052;-71
2023/10/07 13:00:19;;;;;;;9.32;7.03;;;;;;;10.16;100.00;96553.50;4994704;28;20498;-70
2023/10/07 13:02:47;;;;;;;9.88;6.68;;;;;;;10.04;100.00;96556.09;4994391;28;20052;-70
2023/10/07 13:05:20;;;;;;;9.15;6.32;;;;;;;10.04;100.00;96556.09;4995190;28;20049;-71